createdAt,value
2023-01-17T00:02:21.141Z,97562.55
2023-01-17T00:05:07.867Z,97569.59
2023-01-17T00:07:55.148Z,97575.31
2023-01-17T00:10:25.074Z,97570.26
2023-01-17T00:12:54.770Z,97571.52
2023-01-17T00:15:26.325Z,97572.30
2023-01-17T00:17:57.561Z,97568.39
2023-01-17T00:20:48.880Z,97568.97
2023-01-17T00:24:00.881Z,97565.44
2023-01-17T00:26:30.782Z,97566.45
2023-01-17T00:28:58.739Z,97568.17
2023-01-17T00:31:26.691Z,97566.70
2023-01-17T00:33:54.374Z,97564.36
2023-01-17T00:36:22.119Z,97558.14
2023-01-17T00:38:49.818Z,97557.69
2023-01-17T00:41:17.752Z,97560.42
2023-01-17T00:44:04.289Z,97554.85
2023-01-17T00:46:50.957Z,97560.70
2023-01-17T00:49:37.573Z,97561.35
2023-01-17T00:52:24.000Z,97565.75
2023-01-17T00:55:10.907Z,97558.27
2023-01-17T00:57:57.506Z,97554.15
2023-01-17T01:00:44.230Z,97547.02
2023-01-17T01:03:31.091Z,97555.55
2023-01-17T01:06:17.865Z,97560.66
2023-01-17T01:09:04.057Z,97564.19
2023-01-17T01:11:51.185Z,97564.66
2023-01-17T01:14:37.824Z,97567.83
2023-01-17T01:17:24.674Z,97572.46
2023-01-17T01:20:11.424Z,97573.92
2023-01-17T01:22:57.961Z,97570.18
2023-01-17T01:25:44.159Z,97566.31
2023-01-17T01:28:32.273Z,97568.39
2023-01-17T01:31:23.823Z,97564.90
2023-01-17T01:33:53.143Z,97567.23
2023-01-17T01:36:21.185Z,97572.16
2023-01-17T01:38:50.332Z,97572.00
2023-01-17T01:41:18.493Z,97568.01
2023-01-17T01:43:49.284Z,97570.34
2023-01-17T01:46:24.572Z,97571.73
2023-01-17T01:49:13.461Z,97562.88
2023-01-17T01:51:45.351Z,97561.39
2023-01-17T01:54:34.128Z,97558.05
2023-01-17T01:57:04.235Z,97550.55
2023-01-17T01:59:33.642Z,97545.34
2023-01-17T02:02:01.580Z,97541.92
2023-01-17T02:04:29.493Z,97541.30
2023-01-17T02:07:07.355Z,97534.95
2023-01-17T02:09:35.369Z,97539.39
2023-01-17T02:12:03.874Z,97542.10
2023-01-17T02:14:31.758Z,97539.80
2023-01-17T02:17:24.786Z,97537.27
2023-01-17T02:20:02.113Z,97541.64
2023-01-17T02:23:01.642Z,97541.32
2023-01-17T02:25:48.304Z,97539.27
2023-01-17T02:28:36.835Z,97539.15
2023-01-17T02:31:27.625Z,97531.21
2023-01-17T02:34:08.477Z,97532.27
2023-01-17T02:37:01.230Z,97528.81
2023-01-17T02:39:35.015Z,97537.27
2023-01-17T02:42:07.648Z,97534.30
2023-01-17T02:44:42.954Z,97528.05
2023-01-17T02:47:26.493Z,97523.14
2023-01-17T02:49:58.487Z,97526.45
2023-01-17T02:52:49.689Z,97535.60
2023-01-17T02:55:37.108Z,97532.22
2023-01-17T02:58:16.931Z,97536.19
2023-01-17T03:01:10.130Z,97538.14
2023-01-17T03:03:55.256Z,97533.29
2023-01-17T03:06:33.818Z,97534.39
2023-01-17T03:09:02.532Z,97537.93
2023-01-17T03:11:30.443Z,97543.29
2023-01-17T03:13:58.503Z,97539.20
2023-01-17T03:16:29.340Z,97533.16
2023-01-17T03:18:57.362Z,97525.85
2023-01-17T03:21:25.734Z,97523.48
2023-01-17T03:23:53.608Z,97529.54
2023-01-17T03:26:21.842Z,97529.48
2023-01-17T03:28:49.845Z,97536.71
2023-01-17T03:31:20.047Z,97537.25
2023-01-17T03:33:48.537Z,97539.42
2023-01-17T03:36:16.478Z,97546.75
2023-01-17T03:38:44.885Z,97546.24
2023-01-17T03:41:13.155Z,97547.00
2023-01-17T03:43:41.240Z,97547.84
2023-01-17T03:46:21.550Z,97555.11
2023-01-17T03:48:50.372Z,97557.29
2023-01-17T03:51:18.466Z,97553.95
2023-01-17T03:53:50.109Z,97556.40
2023-01-17T03:56:18.448Z,97557.65
2023-01-17T03:58:46.567Z,97555.55
2023-01-17T04:01:14.739Z,97547.65
2023-01-17T04:03:43.436Z,97554.80
2023-01-17T04:06:12.093Z,97561.12
2023-01-17T04:08:42.954Z,97562.97
2023-01-17T04:11:10.944Z,97566.17
2023-01-17T04:13:38.816Z,97570.42
2023-01-17T04:16:11.010Z,97572.98
2023-01-17T04:18:38.911Z,97571.09
2023-01-17T04:21:07.801Z,97573.69
2023-01-17T04:23:35.814Z,97570.63
2023-01-17T04:26:03.875Z,97568.16
2023-01-17T04:28:31.881Z,97568.95
2023-01-17T04:31:00.587Z,97571.09
2023-01-17T04:33:28.518Z,97568.97
2023-01-17T04:35:56.648Z,97569.08
2023-01-17T04:38:24.926Z,97570.02
2023-01-17T04:40:53.968Z,97565.78
2023-01-17T04:43:21.810Z,97561.36
2023-01-17T04:45:55.230Z,97559.15
2023-01-17T04:48:24.253Z,97557.98
2023-01-17T04:50:51.998Z,97559.27
2023-01-17T04:53:19.835Z,97557.02
2023-01-17T04:55:47.863Z,97560.23
2023-01-17T04:58:18.143Z,97560.33
2023-01-17T05:00:50.894Z,97561.27
2023-01-17T05:03:20.190Z,97561.90
2023-01-17T05:05:48.498Z,97565.04
2023-01-17T05:08:16.481Z,97568.01
2023-01-17T05:10:46.276Z,97568.88
2023-01-17T05:13:14.342Z,97572.41
2023-01-17T05:15:42.645Z,97556.61
2023-01-17T05:18:18.219Z,97542.46
2023-01-17T05:20:46.486Z,97546.04
2023-01-17T05:23:14.657Z,97542.27
2023-01-17T05:25:44.380Z,97549.19
2023-01-17T05:28:13.164Z,97545.20
2023-01-17T05:30:41.287Z,97551.03
2023-01-17T05:33:10.356Z,97549.49
2023-01-17T05:35:38.591Z,97553.11
2023-01-17T05:38:06.495Z,97552.55
2023-01-17T05:40:34.396Z,97551.79
2023-01-17T05:43:06.699Z,97552.41
2023-01-17T05:45:34.738Z,97554.09
2023-01-17T05:48:03.136Z,97558.38
2023-01-17T05:50:36.898Z,97559.59
2023-01-17T05:53:08.316Z,97560.56
2023-01-17T05:55:36.870Z,97562.52
2023-01-17T05:58:05.430Z,97564.95
2023-01-17T06:00:33.697Z,97568.02
2023-01-17T06:03:01.665Z,97572.09
2023-01-17T06:05:29.770Z,97575.92
2023-01-17T06:07:58.169Z,97582.20
2023-01-17T06:10:26.909Z,97582.35
2023-01-17T06:13:03.412Z,97585.66
2023-01-17T06:15:32.398Z,97585.15
2023-01-17T06:18:05.151Z,97590.45
2023-01-17T06:20:34.309Z,97598.84
2023-01-17T06:23:04.514Z,97599.20
2023-01-17T06:25:45.790Z,97604.20
2023-01-17T06:28:16.016Z,97606.17
2023-01-17T06:30:44.071Z,97607.04
2023-01-17T06:33:12.875Z,97611.88
2023-01-17T06:35:47.290Z,97614.63
2023-01-17T06:38:15.082Z,97615.50
2023-01-17T06:40:45.260Z,97623.21
2023-01-17T06:43:13.119Z,97623.60
2023-01-17T06:45:41.006Z,97626.51
2023-01-17T06:48:08.907Z,97628.71
2023-01-17T06:50:36.657Z,97632.19
2023-01-17T06:53:07.445Z,97634.77
2023-01-17T06:55:37.293Z,97641.53
2023-01-17T06:58:05.135Z,97649.05
2023-01-17T07:00:35.283Z,97652.84
2023-01-17T07:03:03.384Z,97651.13
2023-01-17T07:05:31.346Z,97657.33
2023-01-17T07:07:59.219Z,97656.88
2023-01-17T07:10:27.642Z,97660.90
2023-01-17T07:12:59.976Z,97669.64
2023-01-17T07:15:28.336Z,97671.10
2023-01-17T07:17:56.333Z,97675.12
2023-01-17T07:20:24.392Z,97681.65
2023-01-17T07:22:52.277Z,97679.69
2023-01-17T07:25:20.322Z,97680.91
2023-01-17T07:27:48.694Z,97679.88
2023-01-17T07:30:17.002Z,97683.65
2023-01-17T07:32:44.770Z,97679.64
2023-01-17T07:35:12.605Z,97683.67
2023-01-17T07:37:40.496Z,97685.25
2023-01-17T07:40:09.229Z,97689.30
2023-01-17T07:42:37.346Z,97676.48
2023-01-17T07:45:06.070Z,97679.84
2023-01-17T07:47:34.127Z,97682.67
2023-01-17T07:50:02.956Z,97684.41
2023-01-17T07:52:31.369Z,97690.70
2023-01-17T07:54:59.241Z,97696.86
2023-01-17T07:57:27.197Z,97701.38
2023-01-17T07:59:55.241Z,97699.64
2023-01-17T08:02:23.725Z,97699.39
2023-01-17T08:04:52.879Z,97706.52
2023-01-17T08:07:21.409Z,97705.16
2023-01-17T08:09:50.256Z,97715.61
2023-01-17T08:12:18.273Z,97715.81
2023-01-17T08:14:46.448Z,97719.50
2023-01-17T08:17:16.414Z,97726.91
2023-01-17T08:19:44.970Z,97730.72
2023-01-17T08:22:12.993Z,97732.48
2023-01-17T08:24:44.846Z,97734.06
2023-01-17T08:27:15.320Z,97732.24
2023-01-17T08:29:47.252Z,97730.32
2023-01-17T08:32:15.982Z,97736.35
2023-01-17T08:34:43.812Z,97739.08
2023-01-17T08:37:11.732Z,97747.09
2023-01-17T08:39:39.550Z,97747.90
2023-01-17T08:42:07.426Z,97748.86
2023-01-17T08:44:35.546Z,97752.33
2023-01-17T08:47:03.343Z,97748.91
2023-01-17T08:49:31.069Z,97749.88
2023-01-17T08:51:59.039Z,97752.80
2023-01-17T08:54:26.930Z,97751.06
2023-01-17T08:56:55.792Z,97752.61
2023-01-17T08:59:23.800Z,97750.91
2023-01-17T09:01:52.670Z,97749.60
2023-01-17T09:04:20.628Z,97749.48
2023-01-17T09:06:48.933Z,97747.16
2023-01-17T09:09:17.343Z,97754.38
2023-01-17T09:11:45.239Z,97759.03
2023-01-17T09:14:13.512Z,97762.29
2023-01-17T09:16:41.508Z,97761.11
2023-01-17T09:19:09.383Z,97759.90
2023-01-17T09:21:37.712Z,97761.27
2023-01-17T09:24:05.688Z,97770.11
2023-01-17T09:26:33.693Z,97774.23
2023-01-17T09:29:01.810Z,97774.33
2023-01-17T09:31:29.949Z,97769.72
2023-01-17T09:33:58.778Z,97766.95
2023-01-17T09:36:29.326Z,97766.73
2023-01-17T09:39:00.997Z,97764.58
2023-01-17T09:41:31.225Z,97762.10
2023-01-17T09:44:04.818Z,97764.94
2023-01-17T09:46:37.891Z,97764.84
2023-01-17T09:49:09.698Z,97767.55
2023-01-17T09:51:37.763Z,97765.02
2023-01-17T09:54:05.688Z,97766.39
2023-01-17T09:56:41.525Z,97762.79
2023-01-17T09:59:21.666Z,97760.23
2023-01-17T10:02:11.418Z,97763.17
2023-01-17T10:04:49.368Z,97762.77
2023-01-17T10:07:28.694Z,97759.24
2023-01-17T10:10:04.395Z,97758.76
2023-01-17T10:12:39.836Z,97763.50
2023-01-17T10:15:24.368Z,97763.73
2023-01-17T10:18:34.407Z,97759.42
2023-01-17T10:21:05.641Z,97765.90
2023-01-17T10:26:25.405Z,97768.15
2023-01-17T10:28:58.391Z,97770.34
2023-01-17T10:31:29.045Z,97762.83
2023-01-17T10:33:59.076Z,97776.13
2023-01-17T10:36:30.348Z,97771.98
2023-01-17T10:39:04.672Z,97775.45
2023-01-17T10:41:39.417Z,97776.67
2023-01-17T10:44:13.643Z,97781.50
2023-01-17T10:46:46.880Z,97784.73
2023-01-17T10:49:20.836Z,97786.29
2023-01-17T10:52:00.700Z,97784.64
2023-01-17T10:54:53.136Z,97787.17
2023-01-17T10:57:23.794Z,97788.04
2023-01-17T10:59:52.496Z,97790.56
2023-01-17T11:02:28.257Z,97798.77
2023-01-17T11:04:57.570Z,97803.75
2023-01-17T11:07:27.032Z,97802.14
2023-01-17T11:09:58.536Z,97802.95
2023-01-17T11:12:41.805Z,97801.62
2023-01-17T11:15:10.087Z,97802.07
2023-01-17T11:17:53.357Z,97798.10
2023-01-17T11:20:34.553Z,97795.99
2023-01-17T11:23:21.884Z,97791.55
2023-01-17T11:25:52.787Z,97786.66
2023-01-17T11:28:23.745Z,97780.21
2023-01-17T11:31:00.282Z,97780.73
2023-01-17T11:33:36.124Z,97780.27
2023-01-17T11:36:04.219Z,97772.86
2023-01-17T11:38:32.637Z,97773.89
2023-01-17T11:41:21.469Z,97778.48
2023-01-17T11:43:59.666Z,97774.60
2023-01-17T11:46:29.782Z,97773.44
2023-01-17T11:49:00.345Z,97777.38
2023-01-17T11:51:39.644Z,97784.42
2023-01-17T11:54:18.011Z,97783.56
2023-01-17T11:56:46.708Z,97784.51
2023-01-17T11:59:29.611Z,97783.86
2023-01-17T12:02:33.755Z,97782.09
2023-01-17T12:05:33.215Z,97777.16
2023-01-17T12:08:27.326Z,97778.89
2023-01-17T12:11:22.171Z,97781.92
2023-01-17T12:14:23.098Z,97778.77
2023-01-17T12:16:58.916Z,97777.80
2023-01-17T12:19:41.543Z,97774.56
2023-01-17T12:22:23.958Z,97770.05
2023-01-17T12:25:15.201Z,97769.49
2023-01-17T12:28:08.761Z,97770.98
2023-01-17T12:30:52.170Z,97765.88
2023-01-17T12:33:27.939Z,97761.31
2023-01-17T12:36:02.744Z,97758.88
2023-01-17T12:38:37.197Z,97761.08
2023-01-17T12:41:26.822Z,97768.52
2023-01-17T12:44:00.568Z,97767.49
2023-01-17T12:46:39.157Z,97764.77
2023-01-17T12:49:23.562Z,97764.42
2023-01-17T12:51:56.558Z,97761.88
2023-01-17T12:54:29.950Z,97760.02
2023-01-17T12:57:14.222Z,97758.05
2023-01-17T13:00:01.806Z,97758.52
2023-01-17T13:02:40.871Z,97760.38
2023-01-17T13:05:15.749Z,97763.11
2023-01-17T13:07:56.407Z,97769.86
2023-01-17T13:10:33.433Z,97771.84
2023-01-17T13:13:22.770Z,97777.27
2023-01-17T13:16:13.641Z,97779.00
2023-01-17T13:18:46.435Z,97784.08
2023-01-17T13:21:26.828Z,97790.61
2023-01-17T13:24:04.121Z,97800.16
2023-01-17T13:27:11.444Z,97808.93
2023-01-17T13:37:40.805Z,97849.02
2023-01-17T13:41:31.515Z,97853.59
2023-01-17T13:44:50.882Z,97863.21
2023-01-17T13:55:19.619Z,97881.08
2023-01-17T13:59:19.219Z,97875.50
2023-01-17T14:37:53.312Z,97977.90
2023-01-17T14:40:26.467Z,97979.21
2023-01-17T14:43:11.549Z,97984.27
2023-01-17T14:45:40.310Z,97985.45
2023-01-17T14:48:17.087Z,97986.44
2023-01-17T14:50:46.831Z,97987.23
2023-01-17T14:53:28.357Z,97982.27
2023-01-17T14:56:13.596Z,97985.92
2023-01-17T14:58:41.808Z,97985.49
2023-01-17T15:01:15.222Z,97990.70
2023-01-17T15:03:51.702Z,97992.36
2023-01-17T15:06:23.905Z,97994.89
2023-01-17T15:08:54.352Z,97995.71
2023-01-17T15:11:29.781Z,97994.88
2023-01-17T15:13:59.652Z,98001.98
2023-01-17T15:16:31.189Z,98000.29
2023-01-17T15:18:59.736Z,98003.22
2023-01-17T15:21:37.013Z,98002.87
2023-01-17T15:24:08.351Z,97997.89
2023-01-17T15:26:39.903Z,97998.50
2023-01-17T15:29:15.800Z,97997.92
2023-01-17T15:31:47.271Z,97993.34
2023-01-17T15:34:25.628Z,97987.44
2023-01-17T15:36:57.173Z,97988.20
2023-01-17T15:39:30.372Z,97989.23
2023-01-17T15:42:01.123Z,97990.55
2023-01-17T15:44:53.286Z,97985.26
2023-01-17T15:47:28.245Z,97984.40
2023-01-17T15:49:56.767Z,97981.57
2023-01-17T15:52:24.663Z,97985.94
2023-01-17T15:54:54.822Z,97983.78
2023-01-17T15:57:37.667Z,97978.62
2023-01-17T16:00:09.501Z,97972.45
2023-01-17T16:02:44.565Z,97973.42
2023-01-17T16:05:25.157Z,97976.45
2023-01-17T16:08:02.701Z,97980.84
2023-01-17T16:10:36.442Z,97980.59
2023-01-17T16:13:12.093Z,97978.23
2023-01-17T16:15:41.706Z,97977.64
2023-01-17T16:18:18.440Z,97971.57
2023-01-17T16:20:59.568Z,97972.80
2023-01-17T16:23:28.040Z,97969.77
2023-01-17T16:25:55.979Z,97971.80
2023-01-17T16:28:24.704Z,97973.67
2023-01-17T16:30:54.118Z,97972.40
2023-01-17T16:33:22.210Z,97965.03
2023-01-17T16:35:54.099Z,97960.63
2023-01-17T16:38:21.965Z,97953.63
2023-01-17T16:40:49.837Z,97950.48
2023-01-17T16:43:19.644Z,97955.02
2023-01-17T16:45:50.535Z,97958.51
2023-01-17T16:48:19.373Z,97958.89
2023-01-17T16:50:50.727Z,97961.39
2023-01-17T16:53:25.088Z,97959.60
2023-01-17T16:55:57.209Z,97955.94
2023-01-17T16:58:25.692Z,97955.14
2023-01-17T17:00:55.731Z,97956.48
2023-01-17T17:03:23.873Z,97956.30
2023-01-17T17:06:00.550Z,97960.67
2023-01-17T17:08:29.750Z,97960.92
2023-01-17T17:11:15.021Z,97964.17
2023-01-17T17:13:43.600Z,97966.42
2023-01-17T17:16:27.652Z,97970.48
2023-01-17T17:18:58.549Z,97977.81
2023-01-17T17:21:27.400Z,97978.61
2023-01-17T17:23:58.070Z,97980.18
2023-01-17T17:26:29.108Z,97979.50
2023-01-17T17:28:57.942Z,97978.48
2023-01-17T17:31:25.985Z,97974.03
2023-01-17T17:33:58.490Z,97971.69
2023-01-17T17:36:26.786Z,97967.54
2023-01-17T17:38:56.121Z,97972.19
2023-01-17T17:41:26.893Z,97979.15
2023-01-17T17:43:55.314Z,97986.39
2023-01-17T17:46:31.742Z,97987.10
2023-01-17T17:49:01.167Z,97986.39
2023-01-17T17:51:34.536Z,97984.49
2023-01-17T17:54:07.302Z,97986.13
2023-01-17T17:56:36.792Z,97984.70
2023-01-17T17:59:09.084Z,97985.56
2023-01-17T18:01:38.475Z,97985.27
2023-01-17T18:04:10.370Z,97984.38
2023-01-17T18:06:38.965Z,97990.19
2023-01-17T18:09:08.485Z,97999.67
2023-01-17T18:11:38.145Z,98016.58
2023-01-17T18:14:09.625Z,98024.10
2023-01-17T18:16:43.588Z,98018.80
2023-01-17T18:19:17.549Z,98021.04
2023-01-17T18:21:45.696Z,98016.08
2023-01-17T18:24:18.516Z,98012.88
2023-01-17T18:26:48.252Z,98010.70
2023-01-17T18:29:17.889Z,98007.77
2023-01-17T18:31:47.520Z,98010.27
2023-01-17T18:34:17.771Z,98018.37
2023-01-17T18:36:45.720Z,98025.48
2023-01-17T18:39:27.879Z,98031.30
2023-01-17T18:41:56.126Z,98037.41
2023-01-17T18:44:24.177Z,98043.95
2023-01-17T18:46:55.454Z,98054.60
2023-01-17T18:49:23.590Z,98056.27
2023-01-17T18:51:51.843Z,98058.23
2023-01-17T18:54:20.462Z,98055.47
2023-01-17T18:56:48.765Z,98046.05
2023-01-17T18:59:21.550Z,98040.88
2023-01-17T19:01:50.268Z,98044.43
2023-01-17T19:04:18.979Z,98051.13
2023-01-17T19:06:48.305Z,98052.71
2023-01-17T19:09:17.205Z,98062.67
2023-01-17T19:11:46.626Z,98065.85
2023-01-17T19:14:14.784Z,98069.92
2023-01-17T19:16:43.446Z,98074.41
2023-01-17T19:19:14.239Z,98068.85
2023-01-17T19:21:42.238Z,98063.73
2023-01-17T19:24:13.239Z,98063.05
2023-01-17T19:26:42.264Z,98056.80
2023-01-17T19:29:10.630Z,98048.86
2023-01-17T19:31:45.880Z,98040.98
2023-01-17T19:34:15.389Z,98039.20
2023-01-17T19:36:43.402Z,98043.64
2023-01-17T19:39:12.074Z,98044.64
2023-01-17T19:41:45.317Z,98049.75
2023-01-17T19:44:14.681Z,98059.27
2023-01-17T19:46:43.975Z,98059.59
2023-01-17T19:49:12.341Z,98055.27
2023-01-17T19:51:40.528Z,98043.05
2023-01-17T19:54:09.081Z,98042.13
2023-01-17T19:56:37.252Z,98037.88
2023-01-17T19:59:06.426Z,98036.52
2023-01-17T20:01:35.190Z,98037.56
2023-01-17T20:04:03.993Z,98041.36
2023-01-17T20:06:37.181Z,98047.06
2023-01-17T20:09:05.975Z,98043.38
2023-01-17T20:11:35.175Z,98042.04
2023-01-17T20:14:05.595Z,98045.73
2023-01-17T20:16:35.707Z,98042.03
2023-01-17T20:19:04.120Z,98046.27
2023-01-17T20:21:33.367Z,98053.08
2023-01-17T20:24:03.507Z,98063.16
2023-01-17T20:26:37.178Z,98061.02
2023-01-17T20:29:10.468Z,98054.25
2023-01-17T20:31:40.397Z,98059.23
2023-01-17T20:34:10.950Z,98063.03
2023-01-17T20:36:40.622Z,98062.40
2023-01-17T20:39:11.155Z,98064.92
2023-01-17T20:41:41.561Z,98067.46
2023-01-17T20:44:13.369Z,98065.20
2023-01-17T20:46:41.962Z,98056.67
2023-01-17T20:49:15.051Z,98058.77
2023-01-17T20:51:44.619Z,98060.42
2023-01-17T20:54:15.292Z,98058.66
2023-01-17T20:56:43.590Z,98070.52
2023-01-17T20:59:16.912Z,98076.44
2023-01-17T21:01:45.521Z,98076.55
2023-01-17T21:04:15.193Z,98073.67
2023-01-17T21:06:43.827Z,98073.56
2023-01-17T21:09:14.799Z,98066.23
2023-01-17T21:11:42.748Z,98056.11
2023-01-17T21:14:10.670Z,98054.60
2023-01-17T21:16:39.022Z,98051.15
2023-01-17T21:19:09.351Z,98052.60
2023-01-17T21:21:37.439Z,98057.59
2023-01-17T21:24:05.806Z,98062.80
2023-01-17T21:26:34.070Z,98058.31
2023-01-17T21:29:02.154Z,98056.23
2023-01-17T21:31:34.187Z,98042.65
2023-01-17T21:34:07.735Z,98037.13
2023-01-17T21:36:38.240Z,98029.66
2023-01-17T21:39:10.110Z,98026.25
2023-01-17T21:41:40.204Z,98022.91
2023-01-17T21:44:13.114Z,98021.15
2023-01-17T21:46:41.155Z,98023.30
2023-01-17T21:49:13.131Z,98023.84
2023-01-17T21:51:54.892Z,98033.44
2023-01-17T21:54:46.842Z,98038.80
2023-01-17T21:57:38.705Z,98047.16
2023-01-17T22:00:10.286Z,98050.89
2023-01-17T22:02:38.559Z,98053.27
2023-01-17T22:05:08.353Z,98050.68
2023-01-17T22:07:39.349Z,98042.48
2023-01-17T22:10:07.573Z,98033.63
2023-01-17T22:12:37.940Z,98027.81
2023-01-17T22:15:06.985Z,98022.78
2023-01-17T22:17:34.975Z,98022.98
2023-01-17T22:20:02.898Z,98023.77
2023-01-17T22:22:32.646Z,98023.80
2023-01-17T22:25:00.505Z,98024.19
2023-01-17T22:27:29.013Z,98024.30
2023-01-17T22:29:57.086Z,98026.45
2023-01-17T22:32:25.283Z,98025.81
2023-01-17T22:34:53.753Z,98031.72
2023-01-17T22:37:21.870Z,98028.52
2023-01-17T22:39:49.810Z,98024.30
2023-01-17T22:42:17.712Z,98020.34
2023-01-17T22:44:48.007Z,98011.65
2023-01-17T22:47:15.931Z,98016.61
2023-01-17T22:49:46.207Z,98020.41
2023-01-17T22:52:14.365Z,98024.11
2023-01-17T22:54:42.209Z,98033.32
2023-01-17T22:57:10.255Z,98034.41
2023-01-17T22:59:38.592Z,98031.98
2023-01-17T23:02:06.519Z,98028.54
2023-01-17T23:04:34.475Z,98018.38
2023-01-17T23:07:02.558Z,98007.88
2023-01-17T23:09:30.892Z,98001.23
2023-01-17T23:11:58.868Z,97995.92
2023-01-17T23:14:27.001Z,97994.69
2023-01-17T23:17:18.462Z,97996.09
2023-01-17T23:19:48.840Z,98003.16
2023-01-17T23:22:22.133Z,98009.27
2023-01-17T23:25:11.971Z,98013.85
2023-01-17T23:28:03.604Z,98018.40
2023-01-17T23:30:37.452Z,98012.08
2023-01-17T23:33:10.613Z,98009.50
2023-01-17T23:35:42.194Z,98000.86
2023-01-17T23:38:34.649Z,97991.98
2023-01-17T23:41:25.025Z,97985.29
2023-01-17T23:43:54.379Z,97990.11
2023-01-17T23:46:23.024Z,97993.88
2023-01-17T23:48:51.346Z,97990.25
2023-01-17T23:51:19.230Z,97981.16
2023-01-17T23:53:47.639Z,97980.02
2023-01-17T23:56:19.547Z,97983.41
2023-01-17T23:58:47.420Z,97981.55
